createdAt,value
2022-09-01T00:01:45.163Z,9.21
2022-09-01T00:16:36.697Z,8.44
2022-09-01T00:31:28.678Z,8.62
2022-09-01T00:46:22.661Z,7.73
2022-09-01T01:01:17.007Z,8.47
2022-09-01T01:16:08.153Z,8.69
2022-09-01T01:30:59.494Z,7.37
2022-09-01T01:45:50.245Z,7.19
2022-09-01T02:00:41.363Z,8.59
2022-09-01T02:15:33.825Z,8.40
2022-09-01T02:30:26.088Z,6.98
2022-09-01T02:45:16.625Z,7.68
2022-09-01T03:00:07.565Z,7.53
2022-09-01T03:44:42.800Z,8.14
2022-09-01T03:59:33.183Z,9.37
2022-09-01T04:14:23.840Z,9.09
2022-09-01T04:29:14.464Z,9.54
2022-09-01T04:44:05.950Z,11.64
2022-09-01T04:58:57.334Z,10.38
2022-09-01T05:13:48.725Z,10.58
2022-09-01T05:28:40.027Z,11.38
2022-09-01T05:43:31.769Z,13.14
2022-09-01T05:58:23.687Z,13.87
2022-09-01T06:13:15.921Z,16.39
2022-09-01T06:28:08.675Z,16.99
2022-09-01T06:43:00.654Z,13.44
2022-09-01T06:58:08.267Z,15.22
2022-09-01T07:13:05.603Z,12.81
2022-09-01T07:57:21.507Z,13.02
2022-09-01T08:12:14.513Z,11.61
2022-09-01T08:27:06.924Z,9.52
2022-09-01T08:42:04.651Z,8.89
2022-09-01T08:57:15.687Z,7.28
2022-09-01T09:12:49.841Z,6.39
2022-09-01T09:27:49.422Z,5.31
2022-09-01T09:42:53.945Z,6.07
2022-09-01T09:57:48.904Z,7.61
2022-09-01T10:12:41.740Z,10.54
2022-09-01T10:27:34.514Z,5.57
2022-09-01T10:42:29.061Z,4.96
2022-09-01T10:57:43.009Z,4.81
2022-09-01T11:12:43.617Z,4.93
2022-09-01T11:27:50.280Z,5.90
2022-09-01T11:42:46.945Z,5.24
2022-09-01T11:57:38.578Z,6.09
2022-09-01T12:12:35.703Z,5.68
2022-09-01T12:27:31.214Z,5.57
2022-09-01T12:42:24.499Z,4.44
2022-09-01T12:57:32.141Z,4.20
2022-09-01T13:12:28.673Z,3.96
2022-09-01T13:27:21.532Z,3.78
2022-09-01T13:42:13.094Z,4.28
2022-09-01T13:57:05.922Z,3.78
2022-09-01T16:59:55.587Z,5.60
2022-09-01T17:14:52.742Z,4.01
2022-09-01T17:29:47.785Z,6.43
2022-09-01T17:44:42.149Z,5.68
2022-09-01T19:01:10.523Z,5.29
2022-09-01T19:16:06.599Z,3.78
2022-09-01T19:31:01.265Z,5.53
2022-09-01T19:46:13.615Z,3.96
2022-09-01T20:01:10.404Z,6.20
2022-09-01T20:16:14.655Z,4.50
2022-09-01T20:31:16.585Z,4.57
2022-09-01T20:46:10.787Z,4.76
2022-09-01T21:01:17.958Z,4.62
2022-09-01T21:16:37.620Z,5.95
2022-09-01T21:31:35.027Z,5.01
2022-09-01T21:46:26.756Z,8.60
2022-09-01T22:01:18.232Z,5.43
2022-09-01T22:16:08.924Z,6.07
2022-09-01T22:31:00.475Z,4.81
2022-09-01T22:45:52.004Z,4.80
2022-09-01T23:00:45.297Z,6.59
2022-09-01T23:15:40.247Z,5.49
2022-09-01T23:30:33.271Z,4.64
2022-09-01T23:45:25.150Z,4.60
